createdAt,value
2023-11-12T00:00:39.079Z,5.33
2023-11-12T00:01:41.868Z,5.30
2023-11-12T00:02:44.182Z,5.32
2023-11-12T00:03:46.249Z,5.32
2023-11-12T00:04:48.815Z,5.30
2023-11-12T00:05:52.103Z,5.29
2023-11-12T00:06:54.101Z,5.27
2023-11-12T00:07:56.103Z,5.30
2023-11-12T00:08:58.921Z,5.32
2023-11-12T00:10:00.741Z,5.34
2023-11-12T00:11:02.772Z,5.37
2023-11-12T00:12:05.241Z,5.39
2023-11-12T00:13:07.095Z,5.41
2023-11-12T00:14:09.347Z,5.42
2023-11-12T00:15:11.622Z,5.44
2023-11-12T00:16:13.990Z,5.45
2023-11-12T00:17:17.615Z,5.47
2023-11-12T00:18:20.216Z,5.48
2023-11-12T00:19:22.234Z,5.50
2023-11-12T00:20:26.822Z,5.50
2023-11-12T00:21:28.885Z,5.50
2023-11-12T00:22:30.847Z,5.50
2023-11-12T00:23:34.243Z,5.51
2023-11-12T00:24:36.639Z,5.51
2023-11-12T00:25:38.416Z,5.49
2023-11-12T00:26:40.402Z,5.51
2023-11-12T00:27:42.250Z,5.52
2023-11-12T00:28:44.219Z,5.47
2023-11-12T00:29:46.207Z,5.42
2023-11-12T00:30:48.681Z,5.39
2023-11-12T00:31:50.918Z,5.36
2023-11-12T00:32:54.527Z,5.35
2023-11-12T00:33:56.921Z,5.37
2023-11-12T00:34:58.805Z,5.38
2023-11-12T00:36:01.048Z,5.35
2023-11-12T00:37:03.429Z,5.34
2023-11-12T00:38:05.810Z,5.36
2023-11-12T00:39:07.846Z,5.35
2023-11-12T00:40:12.389Z,5.35
2023-11-12T00:41:19.358Z,5.35
2023-11-12T00:42:21.439Z,5.35
2023-11-12T00:43:30.566Z,5.37
2023-11-12T00:44:32.503Z,5.39
2023-11-12T00:45:34.968Z,5.39
2023-11-12T00:46:38.058Z,5.39
2023-11-12T00:47:39.972Z,5.40
2023-11-12T00:48:41.934Z,5.41
2023-11-12T00:49:44.013Z,5.41
2023-11-12T00:50:45.993Z,5.40
2023-11-12T00:51:47.909Z,5.39
2023-11-12T00:52:49.919Z,5.40
2023-11-12T00:53:52.929Z,5.41
2023-11-12T00:54:54.788Z,5.40
2023-11-12T00:56:00.858Z,5.39
2023-11-12T00:57:02.809Z,5.39
2023-11-12T00:58:04.896Z,5.36
2023-11-12T00:59:07.178Z,5.34
2023-11-12T01:00:09.956Z,5.34
2023-11-12T01:01:12.777Z,5.33
2023-11-12T01:02:17.723Z,5.31
2023-11-12T01:03:20.010Z,5.30
2023-11-12T01:04:21.992Z,5.26
2023-11-12T01:05:23.900Z,5.24
2023-11-12T01:06:25.906Z,5.20
2023-11-12T01:07:28.391Z,5.20
2023-11-12T01:08:31.532Z,5.19
2023-11-12T01:09:33.788Z,5.19
2023-11-12T01:10:35.715Z,5.18
2023-11-12T01:11:39.064Z,5.16
2023-11-12T01:12:41.026Z,5.14
2023-11-12T01:13:43.091Z,5.12
2023-11-12T01:14:44.984Z,5.11
2023-11-12T01:15:47.197Z,5.08
2023-11-12T01:16:50.018Z,5.05
2023-11-12T01:17:52.274Z,5.01
2023-11-12T01:18:54.321Z,5.00
2023-11-12T01:19:56.822Z,5.01
2023-11-12T01:20:58.779Z,5.00
2023-11-12T01:22:00.935Z,5.01
2023-11-12T01:23:03.059Z,5.02
2023-11-12T01:24:06.198Z,5.04
2023-11-12T01:25:08.914Z,5.03
2023-11-12T01:26:10.946Z,5.04
2023-11-12T01:27:13.245Z,5.04
2023-11-12T01:28:15.277Z,5.04
2023-11-12T01:29:17.317Z,5.05
2023-11-12T01:30:19.454Z,5.07
2023-11-12T01:31:21.383Z,5.08
2023-11-12T01:32:24.086Z,5.09
2023-11-12T01:33:26.499Z,5.05
2023-11-12T01:34:28.645Z,5.04
2023-11-12T01:35:30.842Z,5.01
2023-11-12T01:36:32.721Z,4.98
2023-11-12T01:37:34.631Z,4.98
2023-11-12T01:38:36.595Z,4.99
2023-11-12T01:39:38.680Z,4.99
2023-11-12T01:40:42.701Z,4.99
2023-11-12T01:41:45.277Z,4.99
2023-11-12T01:42:47.739Z,4.96
2023-11-12T01:43:49.814Z,4.95
2023-11-12T01:44:51.987Z,4.91
2023-11-12T01:45:54.086Z,4.86
2023-11-12T01:46:56.156Z,4.86
2023-11-12T01:47:58.905Z,4.85
2023-11-12T01:49:01.988Z,4.86
2023-11-12T01:50:09.046Z,4.86
2023-11-12T01:51:11.610Z,4.87
2023-11-12T01:52:14.705Z,4.87
2023-11-12T01:53:17.505Z,4.85
2023-11-12T01:54:19.593Z,4.84
2023-11-12T01:55:24.788Z,4.86
2023-11-12T01:56:27.337Z,4.84
2023-11-12T01:57:30.134Z,4.82
2023-11-12T01:58:32.645Z,4.84
2023-11-12T01:59:37.231Z,4.84
2023-11-12T02:00:41.259Z,4.85
2023-11-12T02:01:43.944Z,4.84
2023-11-12T02:02:46.795Z,4.84
2023-11-12T02:03:50.666Z,4.84
2023-11-12T02:04:53.117Z,4.83
2023-11-12T02:05:54.927Z,4.81
2023-11-12T02:06:57.370Z,4.75
2023-11-12T02:08:02.015Z,4.73
2023-11-12T02:09:04.244Z,4.74
2023-11-12T02:10:10.829Z,4.71
2023-11-12T02:11:15.497Z,4.68
2023-11-12T02:12:17.917Z,4.67
2023-11-12T02:13:20.617Z,4.68
2023-11-12T02:14:24.926Z,4.68
2023-11-12T02:15:27.150Z,4.66
2023-11-12T02:16:29.081Z,4.64
2023-11-12T02:17:33.197Z,4.59
2023-11-12T02:18:35.296Z,4.63
2023-11-12T02:19:37.720Z,4.63
2023-11-12T02:20:49.370Z,4.64
2023-11-12T02:21:51.430Z,4.66
2023-11-12T02:22:53.615Z,4.67
2023-11-12T02:23:55.554Z,4.68
2023-11-12T02:24:57.802Z,4.68
2023-11-12T02:25:59.699Z,4.66
2023-11-12T02:27:02.101Z,4.62
2023-11-12T02:28:04.571Z,4.60
2023-11-12T02:29:08.292Z,4.60
2023-11-12T02:30:10.573Z,4.63
2023-11-12T02:31:12.880Z,4.63
2023-11-12T02:32:14.864Z,4.64
2023-11-12T02:33:18.155Z,4.61
2023-11-12T02:34:23.254Z,4.59
2023-11-12T02:35:25.149Z,4.59
2023-11-12T02:36:27.321Z,4.55
2023-11-12T02:37:30.019Z,4.53
2023-11-12T02:38:32.703Z,4.52
2023-11-12T02:39:34.737Z,4.53
2023-11-12T02:40:36.685Z,4.54
2023-11-12T02:41:40.857Z,4.55
2023-11-12T02:42:42.809Z,4.54
2023-11-12T02:43:44.869Z,4.53
2023-11-12T02:44:47.064Z,4.51
2023-11-12T02:45:50.263Z,4.49
2023-11-12T02:46:52.306Z,4.48
2023-11-12T02:47:54.568Z,4.48
2023-11-12T02:49:09.271Z,4.46
2023-11-12T02:50:36.851Z,4.48
2023-11-12T02:51:40.152Z,4.47
2023-11-12T02:52:42.365Z,4.47
2023-11-12T02:53:44.389Z,4.46
2023-11-12T02:54:46.303Z,4.46
2023-11-12T02:55:48.248Z,4.45
2023-11-12T02:56:50.135Z,4.44
2023-11-12T02:57:52.739Z,4.44
2023-11-12T02:58:55.777Z,4.43
2023-11-12T02:59:57.805Z,4.43
2023-11-12T03:00:59.877Z,4.43
2023-11-12T03:02:02.164Z,4.43
2023-11-12T03:03:04.419Z,4.42
2023-11-12T03:04:07.852Z,4.43
2023-11-12T03:05:10.445Z,4.41
2023-11-12T03:06:13.045Z,4.39
2023-11-12T03:07:15.023Z,4.36
2023-11-12T03:08:16.922Z,4.37
2023-11-12T03:09:19.009Z,4.31
2023-11-12T03:10:22.059Z,4.29
2023-11-12T03:11:27.456Z,4.29
2023-11-12T03:12:29.729Z,4.28
2023-11-12T03:13:31.840Z,4.26
2023-11-12T03:14:34.946Z,4.27
2023-11-12T03:15:37.220Z,4.26
2023-11-12T03:16:39.471Z,4.24
2023-11-12T03:17:41.920Z,4.24
2023-11-12T03:18:47.947Z,4.25
2023-11-12T03:19:51.434Z,4.25
2023-11-12T03:20:53.804Z,4.27
2023-11-12T03:21:56.713Z,4.28
2023-11-12T03:22:59.079Z,4.30
2023-11-12T03:24:01.135Z,4.30
2023-11-12T03:25:06.264Z,4.31
2023-11-12T03:26:08.197Z,4.32
2023-11-12T03:27:12.127Z,4.31
2023-11-12T03:28:14.034Z,4.31
2023-11-12T03:29:15.911Z,4.26
2023-11-12T03:30:17.913Z,4.22
2023-11-12T03:31:19.906Z,4.21
2023-11-12T03:32:22.844Z,4.23
2023-11-12T03:33:24.768Z,4.23
2023-11-12T03:34:27.639Z,4.22
2023-11-12T03:35:30.554Z,4.22
2023-11-12T03:36:32.619Z,4.23
2023-11-12T03:37:34.641Z,4.23
2023-11-12T03:38:37.174Z,4.24
2023-11-12T03:39:39.187Z,4.25
2023-11-12T03:40:41.131Z,4.21
2023-11-12T03:41:43.080Z,4.20
2023-11-12T03:42:45.217Z,4.20
2023-11-12T03:43:47.553Z,4.15
2023-11-12T03:44:51.003Z,4.12
2023-11-12T03:45:53.289Z,4.12
2023-11-12T03:46:55.305Z,4.13
2023-11-12T03:47:57.305Z,4.16
2023-11-12T03:48:59.430Z,4.15
2023-11-12T03:50:01.553Z,4.15
2023-11-12T03:51:03.515Z,4.11
2023-11-12T03:52:06.505Z,4.05
2023-11-12T03:53:08.526Z,4.06
2023-11-12T03:54:12.226Z,4.06
2023-11-12T03:55:14.361Z,4.07
2023-11-12T03:56:16.280Z,4.04
2023-11-12T03:57:18.831Z,4.04
2023-11-12T03:58:20.954Z,4.04
2023-11-12T03:59:23.121Z,4.05
2023-11-12T04:00:25.732Z,4.06
2023-11-12T04:01:27.747Z,4.06
2023-11-12T04:02:29.852Z,4.08
2023-11-12T04:03:32.305Z,4.09
2023-11-12T04:04:34.380Z,4.08
2023-11-12T04:05:36.455Z,4.07
2023-11-12T04:06:38.614Z,4.07
2023-11-12T04:07:40.580Z,4.05
2023-11-12T04:08:42.421Z,4.04
2023-11-12T04:09:44.375Z,4.05
2023-11-12T04:10:47.780Z,4.03
2023-11-12T04:11:50.182Z,4.03
2023-11-12T04:12:52.338Z,4.03
2023-11-12T04:13:54.435Z,3.94
2023-11-12T04:14:56.582Z,3.89
2023-11-12T04:15:58.564Z,3.86
2023-11-12T04:17:01.077Z,3.84
2023-11-12T04:18:03.111Z,3.86
2023-11-12T04:19:05.329Z,3.84
2023-11-12T04:20:09.966Z,3.86
2023-11-12T04:21:15.256Z,3.89
2023-11-12T04:22:17.188Z,3.88
2023-11-12T04:23:19.248Z,3.87
2023-11-12T04:24:21.177Z,3.90
2023-11-12T04:25:23.168Z,3.92
2023-11-12T04:26:26.118Z,3.88
2023-11-12T04:27:28.240Z,3.84
2023-11-12T04:28:30.599Z,3.87
2023-11-12T04:29:32.434Z,3.90
2023-11-12T04:30:35.324Z,3.91
2023-11-12T04:31:38.159Z,3.92
2023-11-12T04:32:40.281Z,3.93
2023-11-12T04:33:42.323Z,3.93
2023-11-12T04:34:48.032Z,3.86
2023-11-12T04:35:51.423Z,3.84
2023-11-12T04:36:53.653Z,3.83
2023-11-12T04:37:55.618Z,3.81
2023-11-12T04:39:00.649Z,3.81
2023-11-12T04:40:05.198Z,3.83
2023-11-12T04:41:08.038Z,3.84
2023-11-12T04:42:10.038Z,3.83
2023-11-12T04:43:13.819Z,3.78
2023-11-12T04:44:15.900Z,3.80
2023-11-12T04:45:21.311Z,3.77
2023-11-12T04:46:24.401Z,3.79
2023-11-12T04:47:26.815Z,3.79
2023-11-12T04:48:28.645Z,3.79
2023-11-12T04:49:30.590Z,3.78
2023-11-12T04:50:32.606Z,3.74
2023-11-12T04:51:34.910Z,3.73
2023-11-12T04:52:37.002Z,3.71
2023-11-12T04:53:39.686Z,3.69
2023-11-12T04:54:41.554Z,3.60
2023-11-12T04:55:43.557Z,3.59
2023-11-12T04:56:48.585Z,3.55
2023-11-12T04:57:50.874Z,3.53
2023-11-12T04:58:54.204Z,3.46
2023-11-12T04:59:56.800Z,3.43
2023-11-12T05:00:59.231Z,3.45
2023-11-12T05:02:01.531Z,3.47
2023-11-12T05:03:06.123Z,3.48
2023-11-12T05:04:08.557Z,3.47
2023-11-12T05:05:10.838Z,3.51
2023-11-12T05:06:12.645Z,3.51
2023-11-12T05:07:14.592Z,3.53
2023-11-12T05:08:16.423Z,3.55
2023-11-12T05:09:18.252Z,3.53
2023-11-12T05:10:20.008Z,3.52
2023-11-12T05:11:21.713Z,3.51
2023-11-12T05:12:23.797Z,3.50
2023-11-12T05:13:25.773Z,3.52
2023-11-12T05:14:27.570Z,3.54
2023-11-12T05:15:29.436Z,3.54
2023-11-12T05:16:31.251Z,3.56
2023-11-12T05:17:33.027Z,3.55
2023-11-12T05:18:35.588Z,3.54
2023-11-12T05:19:37.516Z,3.46
2023-11-12T05:20:39.461Z,3.38
2023-11-12T05:21:45.978Z,3.39
2023-11-12T05:22:48.181Z,3.40
2023-11-12T05:23:50.159Z,3.36
2023-11-12T05:24:52.867Z,3.34
2023-11-12T05:25:56.463Z,3.36
2023-11-12T05:26:58.333Z,3.37
2023-11-12T05:28:00.812Z,3.38
2023-11-12T05:29:02.888Z,3.42
2023-11-12T05:30:05.575Z,3.46
2023-11-12T05:31:07.590Z,3.50
2023-11-12T05:32:09.901Z,3.51
2023-11-12T05:33:11.828Z,3.55
2023-11-12T05:34:14.657Z,3.58
2023-11-12T05:35:17.142Z,3.59
2023-11-12T05:36:19.277Z,3.59
2023-11-12T05:37:21.294Z,3.58
2023-11-12T05:38:23.433Z,3.59
2023-11-12T05:39:25.543Z,3.59
2023-11-12T05:40:27.551Z,3.57
2023-11-12T05:41:30.220Z,3.58
2023-11-12T05:42:32.087Z,3.60
2023-11-12T05:43:34.077Z,3.62
2023-11-12T05:44:36.100Z,3.62
2023-11-12T05:45:38.221Z,3.60
2023-11-12T05:46:40.527Z,3.59
2023-11-12T05:47:42.660Z,3.60
2023-11-12T05:48:44.686Z,3.62
2023-11-12T05:49:46.487Z,3.64
2023-11-12T05:50:50.109Z,3.66
2023-11-12T05:51:51.839Z,3.68
2023-11-12T05:52:54.403Z,3.67
2023-11-12T05:53:56.444Z,3.69
2023-11-12T05:54:58.315Z,3.69
2023-11-12T05:56:00.429Z,3.69
2023-11-12T05:57:02.360Z,3.71
2023-11-12T05:58:04.515Z,3.68
2023-11-12T05:59:06.243Z,3.61
2023-11-12T06:00:12.385Z,3.58
2023-11-12T06:01:14.201Z,3.59
2023-11-12T06:02:16.013Z,3.58
2023-11-12T06:03:18.021Z,3.59
2023-11-12T06:04:20.332Z,3.62
2023-11-12T06:05:22.216Z,3.63
2023-11-12T06:06:24.043Z,3.65
2023-11-12T06:07:26.074Z,3.67
2023-11-12T06:08:27.782Z,3.69
2023-11-12T06:09:29.610Z,3.65
2023-11-12T06:10:31.615Z,3.67
2023-11-12T06:11:36.525Z,3.69
2023-11-12T06:12:38.371Z,3.70
2023-11-12T06:13:40.237Z,3.69
2023-11-12T06:14:41.941Z,3.69
2023-11-12T06:15:43.993Z,3.74
2023-11-12T06:16:45.815Z,3.75
2023-11-12T06:17:47.589Z,3.76
2023-11-12T06:18:50.199Z,3.75
2023-11-12T06:19:53.187Z,3.75
2023-11-12T06:20:56.256Z,3.75
2023-11-12T06:21:58.605Z,3.74
2023-11-12T06:23:00.436Z,3.76
2023-11-12T06:24:02.213Z,3.74
2023-11-12T06:25:04.087Z,3.76
2023-11-12T06:26:05.888Z,3.78
2023-11-12T06:27:07.770Z,3.78
2023-11-12T06:28:10.428Z,3.79
2023-11-12T06:29:12.115Z,3.81
2023-11-12T06:30:13.941Z,3.80
2023-11-12T06:31:16.778Z,3.83
2023-11-12T06:32:19.298Z,3.85
2023-11-12T06:33:21.181Z,3.84
2023-11-12T06:34:22.962Z,3.83
2023-11-12T06:35:24.842Z,3.83
2023-11-12T06:36:26.697Z,3.83
2023-11-12T06:37:29.435Z,3.83
2023-11-12T06:38:31.257Z,3.83
2023-11-12T06:39:33.034Z,3.81
2023-11-12T06:40:34.868Z,3.82
2023-11-12T06:41:36.616Z,3.80
2023-11-12T06:42:40.898Z,3.80
2023-11-12T06:43:42.915Z,3.79
2023-11-12T06:44:44.776Z,3.76
2023-11-12T06:45:46.724Z,3.76
2023-11-12T06:46:48.563Z,3.76
2023-11-12T06:47:50.408Z,3.72
2023-11-12T06:48:52.396Z,3.72
2023-11-12T06:49:56.877Z,3.71
2023-11-12T06:50:59.829Z,3.71
2023-11-12T06:52:03.035Z,3.65
2023-11-12T06:53:05.226Z,3.62
2023-11-12T06:54:07.905Z,3.64
2023-11-12T06:55:10.038Z,3.65
2023-11-12T06:56:11.923Z,3.69
2023-11-12T06:57:13.695Z,3.68
2023-11-12T06:58:15.504Z,3.68
2023-11-12T06:59:17.510Z,3.67
2023-11-12T07:00:20.206Z,3.62
2023-11-12T07:01:22.218Z,3.61
2023-11-12T07:02:24.426Z,3.57
2023-11-12T07:03:26.414Z,3.57
2023-11-12T07:04:28.308Z,3.58
2023-11-12T07:05:32.856Z,3.63
2023-11-12T07:06:34.634Z,3.65
2023-11-12T07:07:36.403Z,3.67
2023-11-12T07:08:40.099Z,3.67
2023-11-12T07:09:42.606Z,3.72
2023-11-12T07:10:45.216Z,3.66
2023-11-12T07:11:47.057Z,3.56
2023-11-12T07:12:48.933Z,3.60
2023-11-12T07:13:51.728Z,3.65
2023-11-12T07:14:53.530Z,3.65
2023-11-12T07:15:56.736Z,3.60
2023-11-12T07:16:58.730Z,3.56
2023-11-12T07:18:00.506Z,3.60
2023-11-12T07:19:02.698Z,3.61
2023-11-12T07:20:04.567Z,3.65
2023-11-12T07:21:06.370Z,3.67
2023-11-12T07:22:08.134Z,3.67
2023-11-12T07:23:10.067Z,3.67
2023-11-12T07:24:12.036Z,3.68
2023-11-12T07:25:14.425Z,3.67
2023-11-12T07:26:16.135Z,3.66
2023-11-12T07:27:18.158Z,3.66
2023-11-12T07:28:20.046Z,3.62
2023-11-12T07:29:21.936Z,3.58
2023-11-12T07:30:23.756Z,3.56
2023-11-12T07:31:25.914Z,3.59
2023-11-12T07:32:27.795Z,3.58
2023-11-12T07:33:29.524Z,3.57
2023-11-12T07:34:31.320Z,3.64
2023-11-12T07:35:34.067Z,3.60
2023-11-12T07:36:37.481Z,3.57
2023-11-12T07:37:39.377Z,3.53
2023-11-12T07:38:41.591Z,3.57
2023-11-12T07:39:43.482Z,3.56
2023-11-12T07:40:45.574Z,3.54
2023-11-12T07:41:48.154Z,3.53
2023-11-12T07:42:50.006Z,3.52
2023-11-12T07:43:51.938Z,3.50
2023-11-12T07:44:59.882Z,3.52
2023-11-12T07:46:05.402Z,3.53
2023-11-12T07:47:07.563Z,3.59
2023-11-12T07:48:09.930Z,3.62
2023-11-12T07:49:13.600Z,3.65
2023-11-12T07:50:15.433Z,3.64
2023-11-12T07:51:17.223Z,3.56
2023-11-12T07:52:18.939Z,3.48
2023-11-12T07:53:21.910Z,3.45
2023-11-12T07:54:24.533Z,3.50
2023-11-12T07:55:26.517Z,3.47
2023-11-12T07:56:34.289Z,3.48
2023-11-12T07:57:41.024Z,3.46
2023-11-12T07:58:44.072Z,3.45
2023-11-12T07:59:45.924Z,3.40
2023-11-12T08:00:47.817Z,3.35
2023-11-12T08:01:49.614Z,3.38
2023-11-12T08:02:51.459Z,3.43
2023-11-12T08:03:53.636Z,3.40
2023-11-12T08:04:56.630Z,3.42
2023-11-12T08:05:58.443Z,3.43
2023-11-12T08:07:00.231Z,3.49
2023-11-12T08:08:01.994Z,3.50
2023-11-12T08:09:04.344Z,3.46
2023-11-12T08:10:08.040Z,3.42
2023-11-12T08:11:10.826Z,3.43
2023-11-12T08:12:12.713Z,3.48
2023-11-12T08:13:17.056Z,3.44
2023-11-12T08:14:19.063Z,3.41
2023-11-12T08:15:21.363Z,3.45
2023-11-12T08:16:23.218Z,3.48
2023-11-12T08:17:25.173Z,3.50
2023-11-12T08:18:27.263Z,3.53
2023-11-12T08:19:29.040Z,3.59
2023-11-12T08:20:30.810Z,3.59
2023-11-12T08:21:32.616Z,3.60
2023-11-12T08:22:34.363Z,3.59
2023-11-12T08:23:36.153Z,3.57
2023-11-12T08:24:38.360Z,3.59
2023-11-12T08:25:40.148Z,3.58
2023-11-12T08:26:42.876Z,3.62
2023-11-12T08:27:45.212Z,3.60
2023-11-12T08:28:48.644Z,3.57
2023-11-12T08:29:51.264Z,3.50
2023-11-12T08:30:53.276Z,3.49
2023-11-12T08:31:56.051Z,3.47
2023-11-12T08:32:58.328Z,3.47
2023-11-12T08:34:00.147Z,3.46
2023-11-12T08:35:01.924Z,3.44
2023-11-12T08:36:04.916Z,3.49
2023-11-12T08:37:08.174Z,3.51
2023-11-12T08:38:10.192Z,3.50
2023-11-12T08:39:14.493Z,3.53
2023-11-12T08:40:20.005Z,3.63
2023-11-12T08:41:22.122Z,3.69
2023-11-12T08:42:25.451Z,3.65
2023-11-12T08:43:27.240Z,3.59
2023-11-12T08:44:29.146Z,3.59
2023-11-12T08:45:31.359Z,3.64
2023-11-12T08:46:33.237Z,3.64
2023-11-12T08:47:35.074Z,3.65
2023-11-12T08:48:36.918Z,3.67
2023-11-12T08:49:38.651Z,3.68
2023-11-12T08:50:41.157Z,3.70
2023-11-12T08:51:42.995Z,3.70
2023-11-12T08:52:44.923Z,3.67
2023-11-12T08:53:46.777Z,3.67
2023-11-12T08:54:49.283Z,3.73
2023-11-12T08:55:51.288Z,3.79
2023-11-12T08:56:56.253Z,3.84
2023-11-12T08:57:58.163Z,3.91
2023-11-12T08:59:00.492Z,3.97
2023-11-12T09:00:07.782Z,4.07
2023-11-12T09:01:13.485Z,4.13
2023-11-12T09:02:15.481Z,4.18
2023-11-12T09:03:17.371Z,4.24
2023-11-12T09:04:19.678Z,4.20
2023-11-12T09:05:21.920Z,4.25
2023-11-12T09:06:23.774Z,4.29
2023-11-12T09:07:25.570Z,4.34
2023-11-12T09:08:27.632Z,4.39
2023-11-12T09:09:29.457Z,4.50
2023-11-12T09:10:31.180Z,4.58
2023-11-12T09:11:33.570Z,4.69
2023-11-12T09:12:35.481Z,4.78
2023-11-12T09:13:37.312Z,4.81
2023-11-12T09:14:39.376Z,4.87
2023-11-12T09:15:41.166Z,4.95
2023-11-12T09:16:45.941Z,4.95
2023-11-12T09:17:48.542Z,4.97
2023-11-12T09:18:50.895Z,5.03
2023-11-12T09:19:53.215Z,5.06
2023-11-12T09:20:55.096Z,5.09
2023-11-12T09:21:56.964Z,5.10
2023-11-12T09:22:59.274Z,5.10
2023-11-12T09:24:01.707Z,5.13
2023-11-12T09:25:10.829Z,5.17
2023-11-12T09:26:24.047Z,5.17
2023-11-12T09:27:26.043Z,5.20
2023-11-12T09:28:27.819Z,5.28
2023-11-12T09:29:30.156Z,5.31
2023-11-12T09:30:44.692Z,5.38
2023-11-12T09:31:56.089Z,5.40
2023-11-12T09:32:58.059Z,5.45
2023-11-12T09:33:59.905Z,5.51
2023-11-12T09:35:02.241Z,5.58
2023-11-12T09:36:04.436Z,5.62
2023-11-12T09:37:07.228Z,5.69
2023-11-12T09:38:11.120Z,5.60
2023-11-12T09:39:14.429Z,5.62
2023-11-12T09:40:17.678Z,5.66
2023-11-12T09:41:21.498Z,5.73
2023-11-12T09:42:27.039Z,5.78
2023-11-12T09:43:30.127Z,5.82
2023-11-12T09:44:35.014Z,5.88
2023-11-12T09:45:38.990Z,5.86
2023-11-12T09:46:41.193Z,5.83
2023-11-12T09:47:54.618Z,5.82
2023-11-12T09:48:56.453Z,5.85
2023-11-12T09:49:59.056Z,5.86
2023-11-12T09:51:01.764Z,5.89
2023-11-12T09:52:04.275Z,5.95
2023-11-12T09:53:07.192Z,6.05
2023-11-12T09:54:09.970Z,6.11
2023-11-12T09:55:12.257Z,6.17
2023-11-12T09:56:14.830Z,6.18
2023-11-12T09:57:17.042Z,6.24
2023-11-12T09:58:18.829Z,6.27
2023-11-12T09:59:20.781Z,6.30
2023-11-12T10:00:23.424Z,6.28
2023-11-12T10:01:26.008Z,6.25
2023-11-12T10:02:28.497Z,6.21
2023-11-12T10:03:30.390Z,6.23
2023-11-12T10:04:32.353Z,6.24
2023-11-12T10:05:35.815Z,6.24
2023-11-12T10:06:40.355Z,6.25
2023-11-12T10:07:42.556Z,6.27
2023-11-12T10:08:44.535Z,6.31
2023-11-12T10:09:46.389Z,6.35
2023-11-12T10:10:49.262Z,6.39
2023-11-12T10:11:51.114Z,6.36
2023-11-12T10:12:54.510Z,6.31
2023-11-12T10:13:57.773Z,6.31
2023-11-12T10:15:03.652Z,6.37
2023-11-12T10:16:22.322Z,6.46
2023-11-12T10:17:24.091Z,6.53
2023-11-12T10:18:29.772Z,6.56
2023-11-12T10:19:31.973Z,6.64
2023-11-12T10:20:40.436Z,6.67
2023-11-12T10:21:57.887Z,6.67
2023-11-12T10:23:03.786Z,6.65
2023-11-12T10:24:06.842Z,6.73
2023-11-12T10:25:09.102Z,6.79
2023-11-12T10:26:16.384Z,6.82
2023-11-12T10:27:18.378Z,6.83
2023-11-12T10:28:20.901Z,6.82
2023-11-12T10:29:24.498Z,6.85
2023-11-12T10:30:28.754Z,6.90
2023-11-12T10:31:39.385Z,6.96
2023-11-12T10:32:41.665Z,7.01
2023-11-12T10:34:01.183Z,7.08
2023-11-12T10:35:03.765Z,7.12
2023-11-12T10:36:11.104Z,7.13
2023-11-12T10:37:16.139Z,7.14
2023-11-12T10:38:19.259Z,7.16
2023-11-12T10:39:22.046Z,7.17
2023-11-12T10:40:25.017Z,7.18
2023-11-12T10:41:33.945Z,7.21
2023-11-12T10:42:35.765Z,7.20
2023-11-12T10:43:37.593Z,7.16
2023-11-12T10:44:39.708Z,7.18
2023-11-12T10:45:42.597Z,7.17
2023-11-12T10:46:51.628Z,7.13
2023-11-12T10:47:57.465Z,7.11
2023-11-12T10:48:59.470Z,7.09
2023-11-12T10:50:02.100Z,7.14
2023-11-12T10:51:08.056Z,7.20
2023-11-12T10:52:11.456Z,7.26
2023-11-12T10:53:14.640Z,7.30
2023-11-12T10:54:17.386Z,7.34
2023-11-12T10:55:19.418Z,7.38
2023-11-12T10:56:23.163Z,7.43
2023-11-12T10:57:25.892Z,7.48
2023-11-12T10:58:34.182Z,7.51
2023-11-12T10:59:38.950Z,7.54
2023-11-12T11:00:42.178Z,7.57
2023-11-12T11:01:44.323Z,7.58
2023-11-12T11:02:49.031Z,7.64
2023-11-12T11:03:52.898Z,7.67
2023-11-12T11:04:56.547Z,7.63
2023-11-12T11:06:08.037Z,7.65
2023-11-12T11:07:09.988Z,7.71
2023-11-12T11:08:13.430Z,7.75
2023-11-12T11:09:15.655Z,7.77
2023-11-12T11:10:18.075Z,7.78
2023-11-12T11:11:19.897Z,7.81
2023-11-12T11:12:23.771Z,7.78
2023-11-12T11:13:27.128Z,7.79
2023-11-12T11:14:29.369Z,7.81
2023-11-12T11:15:49.306Z,7.85
2023-11-12T11:16:54.369Z,7.89
2023-11-12T11:17:56.356Z,7.97
2023-11-12T11:18:58.376Z,8.00
2023-11-12T11:20:02.290Z,8.02
2023-11-12T11:21:04.537Z,8.07
2023-11-12T11:22:28.112Z,8.12
2023-11-12T11:23:43.625Z,8.19
2023-11-12T11:24:46.916Z,8.23
2023-11-12T11:25:49.377Z,8.20
2023-11-12T11:26:54.362Z,8.18
2023-11-12T11:28:19.103Z,8.21
2023-11-12T11:29:21.192Z,8.25
2023-11-12T11:30:24.860Z,8.27
2023-11-12T11:31:26.791Z,8.31
2023-11-12T11:32:29.449Z,8.36
2023-11-12T11:33:46.429Z,8.43
2023-11-12T11:34:49.834Z,8.46
2023-11-12T11:35:53.628Z,8.49
2023-11-12T11:37:00.967Z,8.47
2023-11-12T11:38:15.361Z,8.55
2023-11-12T11:39:24.949Z,8.64
2023-11-12T11:40:30.365Z,8.71
2023-11-12T11:41:47.303Z,8.74
2023-11-12T11:43:09.027Z,8.78
2023-11-12T11:44:29.182Z,8.81
2023-11-12T11:45:31.171Z,8.85
2023-11-12T11:46:32.978Z,8.86
2023-11-12T11:47:34.901Z,8.91
2023-11-12T11:48:46.415Z,8.92
2023-11-12T11:50:00.472Z,8.93
2023-11-12T11:51:03.996Z,8.96
2023-11-12T11:52:10.119Z,9.01
2023-11-12T11:53:13.042Z,9.05
2023-11-12T11:54:17.942Z,9.12
2023-11-12T11:55:24.007Z,9.15
2023-11-12T11:56:28.198Z,9.16
2023-11-12T11:57:30.858Z,9.16
2023-11-12T11:58:59.131Z,9.19
2023-11-12T12:00:01.215Z,9.23
2023-11-12T12:01:02.927Z,9.25
2023-11-12T12:02:16.876Z,9.28
2023-11-12T12:03:20.743Z,9.34
2023-11-12T12:04:24.656Z,9.29
2023-11-12T12:05:34.447Z,9.30
2023-11-12T12:06:41.753Z,9.36
2023-11-12T12:07:47.419Z,9.34
2023-11-12T12:08:51.925Z,9.33
2023-11-12T12:09:57.589Z,9.33
2023-11-12T12:11:17.159Z,9.32
2023-11-12T12:12:19.071Z,9.34
2023-11-12T12:13:23.500Z,9.39
2023-11-12T12:14:28.105Z,9.44
2023-11-12T12:15:30.015Z,9.47
2023-11-12T12:16:35.523Z,9.46
2023-11-12T12:17:42.439Z,9.47
2023-11-12T12:18:44.846Z,9.50
2023-11-12T12:19:52.156Z,9.53
2023-11-12T12:20:55.146Z,9.53
2023-11-12T12:21:57.133Z,9.57
2023-11-12T12:23:00.531Z,9.65
2023-11-12T12:24:02.747Z,9.66
2023-11-12T12:25:05.745Z,9.63
2023-11-12T12:26:07.635Z,9.62
2023-11-12T12:27:10.938Z,9.63
2023-11-12T12:28:13.015Z,9.64
2023-11-12T12:29:27.151Z,9.65
2023-11-12T12:30:28.926Z,9.68
2023-11-12T12:31:30.722Z,9.73
2023-11-12T12:32:37.112Z,9.75
2023-11-12T12:33:39.521Z,9.72
2023-11-12T12:34:43.510Z,9.70
2023-11-12T12:35:45.312Z,9.71
2023-11-12T12:37:04.508Z,9.74
2023-11-12T12:38:08.634Z,9.75
2023-11-12T12:39:11.601Z,9.70
2023-11-12T12:40:18.478Z,9.64
2023-11-12T12:41:20.331Z,9.65
2023-11-12T12:42:22.346Z,9.65
2023-11-12T12:43:24.105Z,9.62
2023-11-12T12:44:28.709Z,9.62
2023-11-12T12:45:31.509Z,9.64
2023-11-12T12:46:48.840Z,9.69
2023-11-12T12:47:50.762Z,9.69
2023-11-12T12:48:57.064Z,9.71
2023-11-12T12:50:06.078Z,9.77
2023-11-12T12:51:15.179Z,9.79
2023-11-12T12:52:22.007Z,9.82
2023-11-12T12:53:24.808Z,9.87
2023-11-12T12:54:26.891Z,9.91
2023-11-12T12:55:30.811Z,9.93
2023-11-12T12:56:32.492Z,9.95
2023-11-12T12:57:36.340Z,9.97
2023-11-12T12:58:40.054Z,9.96
2023-11-12T12:59:41.925Z,9.95
2023-11-12T13:00:44.752Z,9.88
2023-11-12T13:01:46.868Z,9.84
2023-11-12T13:02:49.359Z,9.76
2023-11-12T13:03:51.405Z,9.74
2023-11-12T13:04:54.699Z,9.72
2023-11-12T13:05:58.055Z,9.72
2023-11-12T13:07:03.441Z,9.73
2023-11-12T13:08:09.622Z,9.69
2023-11-12T13:09:27.848Z,9.64
2023-11-12T13:10:29.817Z,9.65
2023-11-12T13:11:31.537Z,9.62
2023-11-12T13:12:34.899Z,9.60
2023-11-12T13:13:37.915Z,9.57
2023-11-12T13:14:42.345Z,9.51
2023-11-12T13:15:46.344Z,9.48
2023-11-12T13:16:48.600Z,9.46
2023-11-12T13:17:51.266Z,9.41
2023-11-12T13:18:53.178Z,9.36
2023-11-12T13:19:55.861Z,9.36
2023-11-12T13:20:57.681Z,9.36
2023-11-12T13:22:03.236Z,9.37
2023-11-12T13:23:05.928Z,9.38
2023-11-12T13:24:11.240Z,9.37
2023-11-12T13:25:14.077Z,9.36
2023-11-12T13:26:17.163Z,9.33
2023-11-12T13:27:19.679Z,9.30
2023-11-12T13:28:22.737Z,9.27
2023-11-12T13:29:25.155Z,9.24
2023-11-12T13:30:27.015Z,9.23
2023-11-12T13:31:30.314Z,9.23
2023-11-12T13:32:32.244Z,9.20
2023-11-12T13:33:34.964Z,9.15
2023-11-12T13:34:38.495Z,9.11
2023-11-12T13:35:40.477Z,9.10
2023-11-12T13:36:42.371Z,9.08
2023-11-12T13:37:46.677Z,9.02
2023-11-12T13:38:48.445Z,8.98
2023-11-12T13:39:56.061Z,8.93
2023-11-12T13:40:57.842Z,8.91
2023-11-12T13:42:02.596Z,8.91
2023-11-12T13:43:05.194Z,8.90
2023-11-12T13:44:07.010Z,8.82
2023-11-12T13:45:10.827Z,8.80
2023-11-12T13:46:14.278Z,8.78
2023-11-12T13:47:18.929Z,8.78
2023-11-12T13:48:20.899Z,8.77
2023-11-12T13:49:22.827Z,8.76
2023-11-12T13:50:29.498Z,8.78
2023-11-12T13:51:32.014Z,8.80
2023-11-12T13:52:33.885Z,8.80
2023-11-12T13:53:35.644Z,8.78
2023-11-12T13:54:40.119Z,8.76
2023-11-12T13:55:42.813Z,8.75
2023-11-12T13:56:45.005Z,8.73
2023-11-12T13:57:49.744Z,8.70
2023-11-12T13:58:52.182Z,8.68
2023-11-12T13:59:55.508Z,8.66
2023-11-12T14:00:57.365Z,8.67
2023-11-12T14:01:59.455Z,8.68
2023-11-12T14:03:02.557Z,8.69